Terminal Aerodrome Forecast
Issued by NWS Newport/Morehead City, NC

Home | Current Version | Previous Version | Text Only | Print | Product List | Glossary On
Versions: 1 2 3 4 5 6 7 8 9 10 11 12 13 14 15 16 17 18 19 20 21 22 23 24 25 26 27 28
000
FTUS42 KMHX 291100
TAFEWN
TAF
KEWN 291140Z 2912/3012 03004KT 6SM BR SCT007 OVC014
     FM291400 04005KT 3SM -RA BR OVC007
     FM300500 01006KT 5SM BR OVC004=

USA.gov is the U.S. government's official web portal to all federal, state and local government web resources and services.